Historyczne dane pomiarowe

Dodano dane terminowe – wersja testowa.

Dane z okresu 1951-2019

Wersja bazy: 1.34 [2019-03-16, lista zmian], aktualizacja planowana na 2019-04-15

Dane meteo z obszaru Polski uzyskane na podstawie danych udostępnionych przez Instytut Meteorologii i Gospodarki Wodnej – Państwowy Instytut Badawczy.

 

Wybierz Datę:    

       

TemperaturaWilgotnośćZachmurzenieWiatrCiśnienieWidzialnośćZjawiska
 Data    tng td wb rh cc ccl cl cm ch dir g1 g2 mslp ppp      
1999-08-13 00:00:00 4.6--- 4.6 4.6100wxwxwx3wx--- 798.9 0.1---wxw1
1999-08-13 01:00:00 4.8--- 4.8 4.8100wxwxwx4wx--- 798.7----wxw1
1999-08-13 02:00:00 4.8--- 4.8 4.8100wxwxwx3wx--- 798.4----wxw1
1999-08-13 03:00:00 4.7--- 4.6 4.7100wxwx3wx--- 798.2----wxw1
1999-08-13 04:00:00 4.7--- 4.6 4.7100wxwx1wx--- 797.8----wxw1
1999-08-13 05:00:00 4.7--- 4.6 4.7100wxwx1wx--- 797.8----wxw1
1999-08-13 06:00:00 4.3--- 4.3 4.3100wxwx2wx--- 797.8 0.0---wxw1
1999-08-13 07:00:00 4.6--- 4.6 4.6100wxwx1wx--- 797.9----wxw1
1999-08-13 08:00:00 3.9--- 3.9 3.9100wxwx3wx--- 797.8----wxw1
1999-08-13 09:00:00 5.3--- 5.3 5.3100wxwx2wx--- 797.9----wxw1
1999-08-13 10:00:00 5.5--- 5.5 5.5100wxwx2wx--- 798.1----wxw1
1999-08-13 11:00:00 5.9--- 5.9 5.9100wxwx1wx--- 798.1----wxw1
1999-08-13 12:00:00 4.9--- 4.9 4.9100wxwx3wx--- 798.1 0.0---wxw1
1999-08-13 13:00:00 4.9--- 4.9 4.9100wxwx4wx--- 797.8----wxw1
1999-08-13 14:00:00 4.3--- 4.3 4.3100wxwx4wx--- 797.7----wxw1
1999-08-13 15:00:00 4.7--- 4.6 4.7100wxwx4wx--- 797.7----wxw1
1999-08-13 16:00:00 4.3--- 4.3 4.3100wxwx6wx--- 797.6----wxw1
1999-08-13 17:00:00 3.7--- 3.7 3.7100wxwx6wx--- 797.6----wxw1
1999-08-13 18:00:00 3.4--- 3.4 3.4100wxwx6wx--- 797.6 0.0---wxw1
1999-08-13 19:00:00 3.3--- 3.2 3.3100wxwx7wx--- 797.7----wxw1
1999-08-13 20:00:00 2.7--- 2.7 2.7100wxwx6wx--- 797.8----wxw1
1999-08-13 21:00:00 2.4--- 2.4 2.4100wxwx6wx--- 797.8----wxw1
1999-08-13 22:00:00 2.3--- 2.3 2.3100wxwx5wx--- 797.9----wxw1
1999-08-13 23:00:00 1.9--- 1.9 1.9100wxwx6wx--- 797.7----wxw1

 

Źródłem pochodzenia danych jest Instytut Meteorologii i Gospodarki Wodnej – Państwowy Instytut Badawczy. Dane Instytutu Meteorologii i Gospodarki Wodnej – Państwowego Instytutu Badawczego zostały przetworzone.

Dane źródłowe można odnaleźć na stronie https://dane.imgw.pl